This is the latest recevied weather packets stored in our database for station/object KI5GCD-13. If no packets are shown the sender has not sent any weather packets the latest 1 day(s).
| Time | Temp. | Humidity | Pressure | Rain* | Wind** | Luminosity | Snow |
|---|---|---|---|---|---|---|---|
| 1777997687 | 15° C | 99% | 1002.4 hPa | 0 mm | 1.34 m/s, 20° | - | - |
| 1777997387 | 15° C | 99% | 1002.5 hPa | 0 mm | 2.24 m/s, 33° | - | - |
| 1777997087 | 15° C | 99% | 1002.4 hPa | 0 mm | 1.34 m/s, 13° | - | - |
| 1777996787 | 15.56° C | 99% | 1002.3 hPa | 0 mm | 1.79 m/s, 332° | - | - |
| 1777996487 | 16.11° C | 99% | 1002.1 hPa | 0 mm | 3.58 m/s, 63° | - | - |
| 1777996187 | 16.11° C | 99% | 1002.2 hPa | 0 mm | 1.34 m/s, 5° | - | - |
| 1777995887 | 16.11° C | 99% | 1002.2 hPa | 0 mm | 0.45 m/s, 288° | - | - |
| 1777995587 | 16.11° C | 99% | 1001.7 hPa | 0 mm | 1.79 m/s, 32° | - | - |
| 1777995287 | 16.11° C | 99% | 1002 hPa | 0 mm | 0.89 m/s, 274° | - | - |
| 1777994987 | 16.11° C | 99% | 1001.7 hPa | 0 mm | 0 m/s | - | - |
| 1777994687 | 16.11° C | 99% | 1001.9 hPa | 0 mm | 0.45 m/s, 268° | - | - |
| 1777994387 | 16.11° C | 99% | 1001.5 hPa | 0 mm | 0.45 m/s, 241° | - | - |
| 1777994087 | 16.11° C | 99% | 1001.9 hPa | 0 mm | 1.79 m/s, 32° | - | - |
| 1777993787 | 16.11° C | 99% | 1002 hPa | 0 mm | 0.45 m/s, 224° | - | - |
| 1777993487 | 16.11° C | 99% | 1002 hPa | 0 mm | 0 m/s | - | - |
| 1777993187 | 16.11° C | 99% | 1001.9 hPa | 0 mm | 0 m/s | - | - |
| 1777992887 | 16.11° C | 99% | 1001.9 hPa | 0 mm | 0 m/s | - | - |
| 1777992587 | 16.11° C | 99% | 1001.9 hPa | 0 mm | 0 m/s | - | - |
| 1777992287 | 15.56° C | 99% | 1001.6 hPa | 0 mm | 0 m/s | - | - |
| 1777991987 | 15.56° C | 99% | 1001.7 hPa | 0 mm | 0 m/s | - | - |
| 1777991687 | 15.56° C | 99% | 1001.6 hPa | 0 mm | 0 m/s | - | - |
| 1777991387 | 15.56° C | 99% | 1001.4 hPa | 0 mm | 0.45 m/s, 285° | - | - |
| 1777991087 | 15.56° C | 99% | 1001.6 hPa | 0 mm | 0.45 m/s, 223° | - | - |
| 1777990787 | 15.56° C | 99% | 1001.6 hPa | 0 mm | 0 m/s | - | - |
| 1777990487 | 15.56° C | 99% | 1001.7 hPa | 0 mm | 0 m/s | - | - |
* Rain latest hour (hover to see other rain measurements)
** Current wind speed in m/s (hover to see current wind gust speed)